createdAt,value
2019-03-16T00:01:33.405Z,5.67
2019-03-16T00:04:04.251Z,5.80
2019-03-16T00:06:35.074Z,4.47
2019-03-16T00:09:08.362Z,5.30
2019-03-16T00:11:39.211Z,5.03
2019-03-16T00:14:10.352Z,5.20
2019-03-16T00:16:41.731Z,4.77
2019-03-16T00:19:12.481Z,5.67
2019-03-16T00:21:43.470Z,5.97
2019-03-16T00:24:14.162Z,5.67
2019-03-16T00:26:44.835Z,5.07
2019-03-16T00:29:15.243Z,4.40
2019-03-16T00:31:45.890Z,4.73
2019-03-16T00:34:16.210Z,4.53
2019-03-16T00:36:46.946Z,4.23
2019-03-16T00:39:17.345Z,4.63
2019-03-16T00:41:48.323Z,4.90
2019-03-16T00:44:18.940Z,4.77
2019-03-16T00:46:49.990Z,3.80
2019-03-16T00:49:21.442Z,5.37
2019-03-16T00:51:52.775Z,4.33
2019-03-16T00:54:23.417Z,4.20
2019-03-16T00:56:54.887Z,4.97
2019-03-16T00:59:26.018Z,3.53
2019-03-16T01:01:56.850Z,4.53
2019-03-16T01:04:28.297Z,3.90
2019-03-16T01:06:59.486Z,4.17
2019-03-16T01:09:30.654Z,4.90
2019-03-16T01:12:01.422Z,3.73
2019-03-16T01:14:31.730Z,4.07
2019-03-16T01:17:02.963Z,3.90
2019-03-16T01:19:33.271Z,3.63
2019-03-16T01:22:03.849Z,3.60
2019-03-16T01:24:34.161Z,4.60
2019-03-16T01:27:05.518Z,4.27
2019-03-16T01:29:35.838Z,2.90
2019-03-16T01:32:06.577Z,3.23
2019-03-16T01:34:36.887Z,4.70
2019-03-16T01:37:07.945Z,3.63
2019-03-16T01:39:39.095Z,3.60
2019-03-16T01:42:11.158Z,4.37
2019-03-16T01:44:42.610Z,3.77
2019-03-16T01:47:13.749Z,4.00
2019-03-16T01:49:44.668Z,3.43
2019-03-16T01:52:16.245Z,3.13
2019-03-16T01:54:47.081Z,3.47
2019-03-16T01:57:18.014Z,2.90
2019-03-16T01:59:49.094Z,4.07
2019-03-16T02:02:20.002Z,3.57
2019-03-16T02:04:50.519Z,2.90
2019-03-16T02:07:21.055Z,2.63
2019-03-16T02:09:51.328Z,3.37
2019-03-16T02:12:22.123Z,3.13
2019-03-16T02:14:52.430Z,3.90
2019-03-16T02:17:23.477Z,2.90
2019-03-16T02:19:53.848Z,5.13
2019-03-16T02:22:24.546Z,3.37
2019-03-16T02:24:54.857Z,4.60
2019-03-16T02:27:25.898Z,3.27
2019-03-16T02:29:56.599Z,3.83
2019-03-16T02:32:28.274Z,3.30
2019-03-16T02:34:58.547Z,3.10
2019-03-16T02:37:29.251Z,2.67
2019-03-16T02:39:59.645Z,3.13
2019-03-16T02:42:30.610Z,3.47
2019-03-16T02:45:01.587Z,3.23
2019-03-16T02:47:33.520Z,4.17
2019-03-16T02:50:04.966Z,2.63
2019-03-16T02:52:36.117Z,3.20
2019-03-16T02:55:07.807Z,3.77
2019-03-16T02:57:38.703Z,3.27
2019-03-16T03:00:10.340Z,3.00
2019-03-16T03:02:41.361Z,3.63
2019-03-16T03:05:12.681Z,2.40
2019-03-16T03:07:43.590Z,2.97
2019-03-16T03:10:14.777Z,3.00
2019-03-16T03:12:46.423Z,3.67
2019-03-16T03:15:17.331Z,2.93
2019-03-16T03:17:48.469Z,2.53
2019-03-16T03:20:19.087Z,2.80
2019-03-16T03:22:49.522Z,3.43
2019-03-16T03:25:19.687Z,2.33
2019-03-16T03:27:50.586Z,2.30
2019-03-16T03:30:20.911Z,2.50
2019-03-16T03:32:51.948Z,3.43
2019-03-16T03:35:28.748Z,3.67
2019-03-16T03:37:55.077Z,2.73
2019-03-16T03:40:25.490Z,3.10
2019-03-16T03:42:56.538Z,3.63
2019-03-16T03:45:26.891Z,3.60
2019-03-16T03:47:57.885Z,2.60
2019-03-16T03:50:28.481Z,3.57
2019-03-16T03:52:59.539Z,3.00
2019-03-16T03:55:30.706Z,3.30
2019-03-16T03:58:01.850Z,2.97
2019-03-16T04:00:33.312Z,4.60
2019-03-16T04:03:04.446Z,2.60
2019-03-16T04:05:35.587Z,3.27
2019-03-16T04:08:07.045Z,2.20
2019-03-16T04:10:38.185Z,2.63
2019-03-16T04:13:09.811Z,2.30
2019-03-16T04:15:40.630Z,3.20
2019-03-16T04:18:11.311Z,2.73
2019-03-16T04:20:41.458Z,3.37
2019-03-16T04:23:12.674Z,2.27
2019-03-16T04:25:42.979Z,2.70
2019-03-16T04:28:14.046Z,3.40
2019-03-16T04:30:44.445Z,3.37
2019-03-16T04:33:15.100Z,2.80
2019-03-16T04:35:45.409Z,2.43
2019-03-16T04:38:16.159Z,1.93
2019-03-16T04:40:46.473Z,2.37
2019-03-16T04:43:17.133Z,1.87
2019-03-16T04:45:47.786Z,2.03
2019-03-16T04:48:18.577Z,2.70
2019-03-16T04:50:49.414Z,2.70
2019-03-16T04:53:20.564Z,2.30
2019-03-16T04:55:51.398Z,3.80
2019-03-16T04:58:22.625Z,2.53
2019-03-16T05:00:53.434Z,2.40
2019-03-16T05:03:24.222Z,4.20
2019-03-16T05:05:55.355Z,3.57
2019-03-16T05:08:26.813Z,1.83
2019-03-16T05:10:57.949Z,2.00
2019-03-16T05:13:29.462Z,2.50
2019-03-16T05:16:00.035Z,1.90
2019-03-16T05:18:30.566Z,2.00
2019-03-16T05:21:01.078Z,2.30
2019-03-16T05:23:32.126Z,2.80
2019-03-16T05:26:02.535Z,2.03
2019-03-16T05:28:33.227Z,2.27
2019-03-16T05:31:03.560Z,2.40
2019-03-16T05:33:34.565Z,1.93
2019-03-16T05:36:04.877Z,1.83
2019-03-16T05:38:35.527Z,1.37
2019-03-16T05:41:06.845Z,1.43
2019-03-16T05:43:37.538Z,2.70
2019-03-16T05:46:07.906Z,1.80
2019-03-16T05:48:38.655Z,2.00
2019-03-16T05:51:09.442Z,1.80
2019-03-16T05:53:40.090Z,1.63
2019-03-16T05:56:11.166Z,2.00
2019-03-16T05:58:42.921Z,2.33
2019-03-16T06:01:14.380Z,1.73
2019-03-16T06:03:45.846Z,2.00
2019-03-16T06:06:16.913Z,1.80
2019-03-16T06:08:47.805Z,2.67
2019-03-16T06:11:18.928Z,2.00
2019-03-16T06:13:49.717Z,1.50
2019-03-16T06:16:20.622Z,1.70
2019-03-16T06:18:52.075Z,2.40
2019-03-16T06:21:23.828Z,2.07
2019-03-16T06:23:55.276Z,2.03
2019-03-16T06:26:26.326Z,1.60
2019-03-16T06:28:57.570Z,1.83
2019-03-16T06:31:29.031Z,1.23
2019-03-16T06:34:00.163Z,1.80
2019-03-16T06:36:31.309Z,1.83
2019-03-16T06:39:02.453Z,1.50
2019-03-16T06:41:33.590Z,2.00
2019-03-16T06:44:05.209Z,1.47
2019-03-16T06:46:36.191Z,1.40
2019-03-16T06:49:07.261Z,1.70
2019-03-16T06:51:38.171Z,1.37
2019-03-16T06:54:08.982Z,1.70
2019-03-16T06:56:39.843Z,1.43
2019-03-16T06:59:10.455Z,2.83
2019-03-16T07:01:41.518Z,2.90
2019-03-16T07:04:12.658Z,1.77
2019-03-16T07:06:43.494Z,1.77
2019-03-16T07:09:14.644Z,3.13
2019-03-16T07:11:45.478Z,1.70
2019-03-16T07:14:16.309Z,2.03
2019-03-16T07:16:47.175Z,1.80
2019-03-16T07:19:18.903Z,1.70
2019-03-16T07:21:50.358Z,1.47
2019-03-16T07:24:21.811Z,1.40
2019-03-16T07:26:52.740Z,1.50
2019-03-16T07:29:24.090Z,1.43
2019-03-16T07:31:55.542Z,1.67
2019-03-16T07:34:26.688Z,1.73
2019-03-16T07:36:58.102Z,1.40
2019-03-16T07:39:29.620Z,1.33
2019-03-16T07:42:00.866Z,1.50
2019-03-16T07:44:32.190Z,2.07
2019-03-16T07:47:03.330Z,1.73
2019-03-16T07:49:34.482Z,1.80
2019-03-16T07:52:05.270Z,1.30
2019-03-16T07:54:36.446Z,1.80
2019-03-16T07:57:07.734Z,1.83
2019-03-16T07:59:38.690Z,3.10
2019-03-16T08:02:09.878Z,1.50
2019-03-16T08:04:43.530Z,1.27
2019-03-16T08:07:14.015Z,1.03
2019-03-16T08:09:45.157Z,1.50
2019-03-16T08:12:17.229Z,1.20
2019-03-16T08:14:48.714Z,1.70
2019-03-16T08:17:19.982Z,1.63
2019-03-16T08:19:51.270Z,0.90
2019-03-16T08:22:22.444Z,1.97
2019-03-16T08:24:53.275Z,1.27
2019-03-16T08:27:24.693Z,1.93
2019-03-16T08:29:55.554Z,2.00
2019-03-16T08:32:26.679Z,1.83
2019-03-16T08:35:00.285Z,1.97
2019-03-16T08:37:30.505Z,1.33
2019-03-16T08:40:01.643Z,1.43
2019-03-16T08:42:32.721Z,1.43
2019-03-16T08:45:03.886Z,2.37
2019-03-16T08:47:34.761Z,1.70
2019-03-16T08:50:06.398Z,1.53
2019-03-16T08:52:37.893Z,1.60
2019-03-16T08:55:08.813Z,1.37
2019-03-16T08:57:39.987Z,3.63
2019-03-16T09:00:12.838Z,1.40
2019-03-16T09:02:43.501Z,1.93
2019-03-16T09:05:13.878Z,2.20
2019-03-16T09:07:44.577Z,1.43
2019-03-16T09:10:14.849Z,1.33
2019-03-16T09:12:54.938Z,1.93
2019-03-16T09:15:17.759Z,3.77
2019-03-16T09:17:48.490Z,1.40
2019-03-16T09:20:18.769Z,2.23
2019-03-16T09:22:49.330Z,1.70
2019-03-16T09:25:20.090Z,1.33
2019-03-16T09:27:51.907Z,2.10
2019-03-16T09:30:22.430Z,2.20
2019-03-16T09:32:52.979Z,1.93
2019-03-16T09:35:23.734Z,1.73
2019-03-16T09:37:54.372Z,2.07
2019-03-16T09:40:25.015Z,2.17
2019-03-16T09:42:56.064Z,2.07
2019-03-16T09:45:26.470Z,1.90
2019-03-16T09:47:57.077Z,1.10
2019-03-16T09:50:27.787Z,3.83
2019-03-16T09:52:58.665Z,1.90
2019-03-16T09:55:29.814Z,6.50
2019-03-16T09:58:00.955Z,1.67
2019-03-16T10:00:32.103Z,2.80
2019-03-16T10:03:03.247Z,2.40
2019-03-16T10:05:34.388Z,2.20
2019-03-16T10:08:05.833Z,4.37
2019-03-16T10:10:37.281Z,3.00
2019-03-16T10:13:08.429Z,1.67
2019-03-16T10:15:39.577Z,1.53
2019-03-16T10:18:10.915Z,1.73
2019-03-16T10:20:42.163Z,2.63
2019-03-16T10:23:13.330Z,1.67
2019-03-16T10:25:44.135Z,1.80
2019-03-16T10:28:15.066Z,2.20
2019-03-16T10:30:45.824Z,1.33
2019-03-16T10:33:17.277Z,3.13
2019-03-16T10:35:48.730Z,4.23
2019-03-16T10:38:21.097Z,1.50
2019-03-16T10:40:52.259Z,3.70
2019-03-16T10:43:23.382Z,1.93
2019-03-16T10:45:54.854Z,1.47
2019-03-16T10:48:27.223Z,1.27
2019-03-16T10:50:58.969Z,1.73
2019-03-16T10:53:29.805Z,1.47
2019-03-16T10:56:01.245Z,2.63
2019-03-16T10:58:32.402Z,1.23
2019-03-16T11:01:05.058Z,2.70
2019-03-16T11:03:35.998Z,1.30
2019-03-16T11:06:07.055Z,1.27
2019-03-16T11:08:38.199Z,5.37
2019-03-16T11:11:09.342Z,10.53
2019-03-16T11:13:40.494Z,8.60
2019-03-16T11:16:11.628Z,6.50
2019-03-16T11:18:43.081Z,5.77
2019-03-16T11:21:14.227Z,4.90
2019-03-16T11:23:45.669Z,5.53
2019-03-16T11:26:16.541Z,11.10
2019-03-16T11:28:47.655Z,6.53
2019-03-16T11:31:19.112Z,7.83
2019-03-16T11:33:50.441Z,11.03
2019-03-16T11:36:21.398Z,5.10
2019-03-16T11:38:53.148Z,6.80
2019-03-16T11:41:24.418Z,7.03
2019-03-16T11:43:55.762Z,6.70
2019-03-16T11:46:26.581Z,6.13
2019-03-16T11:48:57.678Z,5.07
2019-03-16T11:51:28.565Z,4.03
2019-03-16T11:53:59.712Z,5.97
2019-03-16T11:56:31.045Z,4.47
2019-03-16T11:59:01.988Z,5.67
2019-03-16T12:01:33.130Z,6.27
2019-03-16T12:04:03.851Z,4.87
2019-03-16T12:06:34.810Z,5.23
2019-03-16T12:09:07.466Z,4.93
2019-03-16T12:11:38.090Z,4.67
2019-03-16T12:14:08.511Z,6.47
2019-03-16T12:16:39.116Z,6.93
2019-03-16T12:19:09.855Z,8.27
2019-03-16T12:21:41.305Z,4.60
2019-03-16T12:24:11.782Z,3.33
2019-03-16T12:26:42.429Z,3.50
2019-03-16T12:29:12.745Z,5.67
2019-03-16T12:31:43.488Z,3.83
2019-03-16T12:34:13.803Z,3.63
2019-03-16T12:36:44.577Z,5.73
2019-03-16T12:39:15.181Z,5.00
2019-03-16T12:41:45.789Z,2.80
2019-03-16T12:44:15.959Z,5.87
2019-03-16T12:46:46.668Z,2.80
2019-03-16T12:49:16.913Z,4.40
2019-03-16T12:51:47.728Z,6.40
2019-03-16T12:54:18.552Z,2.60
2019-03-16T12:56:49.702Z,5.87
2019-03-16T12:59:20.838Z,3.67
2019-03-16T13:01:51.897Z,4.57
2019-03-16T13:04:23.170Z,3.23
2019-03-16T13:06:53.969Z,5.40
2019-03-16T13:09:25.744Z,4.17
2019-03-16T13:11:56.817Z,2.63
2019-03-16T13:14:28.714Z,2.90
2019-03-16T13:16:59.765Z,2.40
2019-03-16T13:19:30.910Z,3.63
2019-03-16T13:22:02.075Z,4.53
2019-03-16T13:24:33.207Z,3.60
2019-03-16T13:27:04.346Z,3.83
2019-03-16T13:29:36.916Z,3.63
2019-03-16T13:32:08.079Z,3.53
2019-03-16T13:34:39.326Z,3.60
2019-03-16T13:37:10.396Z,4.93
2019-03-16T13:39:41.590Z,2.30
2019-03-16T13:42:12.744Z,6.80
2019-03-16T13:44:44.184Z,2.37
2019-03-16T13:47:15.030Z,5.83
2019-03-16T13:49:45.906Z,3.10
2019-03-16T13:52:17.618Z,2.83
2019-03-16T13:54:49.069Z,3.13
2019-03-16T13:57:20.214Z,4.07
2019-03-16T13:59:51.386Z,3.27
2019-03-16T14:02:22.818Z,2.87
2019-03-16T14:04:54.257Z,3.33
2019-03-16T14:07:25.938Z,2.53
2019-03-16T14:09:57.165Z,2.80
2019-03-16T14:12:28.619Z,2.47
2019-03-16T14:15:00.173Z,2.97
2019-03-16T14:17:31.822Z,3.40
2019-03-16T14:20:02.680Z,3.87
2019-03-16T14:22:33.797Z,2.87
2019-03-16T14:25:07.347Z,3.83
2019-03-16T14:27:38.259Z,3.30
2019-03-16T14:30:10.952Z,3.47
2019-03-16T14:32:42.084Z,2.33
2019-03-16T14:35:13.829Z,5.27
2019-03-16T14:37:45.495Z,3.57
2019-03-16T14:40:16.506Z,3.40
2019-03-16T14:42:48.789Z,2.57
2019-03-16T14:45:20.551Z,3.43
2019-03-16T14:47:52.013Z,2.43
2019-03-16T14:50:23.467Z,2.57
2019-03-16T14:52:54.606Z,3.37
2019-03-16T14:55:25.750Z,2.73
2019-03-16T14:57:56.882Z,2.20
2019-03-16T15:00:37.942Z,2.57
2019-03-16T15:03:00.713Z,3.50
2019-03-16T15:05:31.594Z,3.30
2019-03-16T15:08:02.683Z,2.10
2019-03-16T15:10:33.824Z,2.47
2019-03-16T15:13:05.456Z,2.20
2019-03-16T15:15:38.905Z,2.73
2019-03-16T15:18:09.718Z,3.73
2019-03-16T15:20:40.876Z,3.20
2019-03-16T15:23:12.017Z,3.27
2019-03-16T15:25:42.833Z,3.23
2019-03-16T15:28:14.291Z,4.17
2019-03-16T15:30:50.749Z,2.43
2019-03-16T15:33:18.578Z,3.30
2019-03-16T15:35:49.577Z,2.37
2019-03-16T15:38:20.708Z,3.57
2019-03-16T15:40:52.782Z,3.67
2019-03-16T15:43:24.345Z,2.93
2019-03-16T15:45:56.625Z,4.03
2019-03-16T15:48:27.738Z,3.83
2019-03-16T15:50:58.161Z,2.60
2019-03-16T15:53:29.118Z,3.30
2019-03-16T15:55:59.854Z,3.90
2019-03-16T15:58:31.099Z,3.73
2019-03-16T16:01:03.750Z,3.57
2019-03-16T16:03:35.222Z,4.05
2019-03-16T16:06:06.359Z,3.90
2019-03-16T16:08:37.203Z,4.77
2019-03-16T16:11:08.351Z,4.73
2019-03-16T16:13:39.799Z,3.10
2019-03-16T16:16:11.871Z,2.97
2019-03-16T16:18:43.013Z,4.27
2019-03-16T16:21:15.673Z,4.77
2019-03-16T16:23:48.211Z,3.70
2019-03-16T16:26:19.813Z,5.80
2019-03-16T16:28:50.326Z,5.00
2019-03-16T16:31:21.062Z,14.77
2019-03-16T16:33:52.180Z,10.83
2019-03-16T16:36:22.845Z,3.70
2019-03-16T16:38:53.441Z,3.20
2019-03-16T16:41:25.658Z,6.43
2019-03-16T16:43:56.674Z,8.27
2019-03-16T16:46:27.758Z,5.20
2019-03-16T16:48:59.163Z,4.00
2019-03-16T16:51:30.457Z,4.03
2019-03-16T16:54:00.872Z,3.60
2019-03-16T16:56:32.798Z,5.07
2019-03-16T16:59:04.528Z,3.53
2019-03-16T17:01:36.632Z,2.77
2019-03-16T17:04:08.088Z,7.20
2019-03-16T17:06:40.970Z,5.13
2019-03-16T17:09:13.462Z,3.97
2019-03-16T17:11:44.665Z,3.83
2019-03-16T17:14:16.658Z,5.50
2019-03-16T17:16:47.429Z,4.00
2019-03-16T17:19:18.598Z,6.40
2019-03-16T17:21:49.684Z,4.33
2019-03-16T17:24:20.456Z,2.93
2019-03-16T17:26:51.752Z,4.73
2019-03-16T17:29:21.998Z,3.20
2019-03-16T17:31:52.595Z,7.37
2019-03-16T17:34:23.033Z,5.37
2019-03-16T17:36:53.805Z,2.97
2019-03-16T17:39:25.446Z,2.93
2019-03-16T17:41:56.493Z,3.50
2019-03-16T17:44:27.070Z,4.62
2019-03-16T17:46:58.022Z,4.03
2019-03-16T17:49:28.430Z,4.37
2019-03-16T17:51:59.938Z,3.47
2019-03-16T17:54:30.586Z,5.73
2019-03-16T17:57:01.451Z,3.83
2019-03-16T17:59:34.387Z,4.07
2019-03-16T18:02:05.569Z,6.43
2019-03-16T18:04:36.661Z,2.67
2019-03-16T18:07:07.843Z,3.13
2019-03-16T18:09:38.931Z,4.20
2019-03-16T18:12:09.779Z,3.33
2019-03-16T18:14:40.988Z,4.67
2019-03-16T18:17:12.528Z,6.23
2019-03-16T18:19:43.501Z,4.17
2019-03-16T18:22:14.360Z,4.57
2019-03-16T18:24:45.842Z,5.37
2019-03-16T18:27:18.247Z,4.47
2019-03-16T18:29:50.078Z,4.23
2019-03-16T18:32:21.412Z,3.60
2019-03-16T18:34:52.793Z,3.63
2019-03-16T18:37:24.042Z,5.90
2019-03-16T18:39:55.229Z,4.73
2019-03-16T18:42:27.875Z,3.60
2019-03-16T18:44:59.298Z,5.13
2019-03-16T18:47:30.752Z,6.07
2019-03-16T18:50:01.849Z,4.17
2019-03-16T18:52:33.359Z,4.67
2019-03-16T18:55:04.699Z,3.83
2019-03-16T18:57:35.970Z,4.30
2019-03-16T19:00:07.334Z,5.40
2019-03-16T19:02:38.710Z,5.10
2019-03-16T19:05:10.435Z,6.67
2019-03-16T19:07:42.386Z,5.50
2019-03-16T19:10:14.451Z,4.63
2019-03-16T19:12:45.971Z,4.67
2019-03-16T19:15:17.402Z,5.60
2019-03-16T19:17:58.639Z,4.43
2019-03-16T19:20:20.914Z,4.13
2019-03-16T19:22:52.256Z,6.10
2019-03-16T19:25:23.365Z,4.23
2019-03-16T19:27:54.579Z,4.80
2019-03-16T19:30:25.762Z,6.87
2019-03-16T19:32:56.981Z,5.83
2019-03-16T19:35:27.757Z,4.37
2019-03-16T19:37:59.389Z,4.83
2019-03-16T19:40:29.878Z,5.37
2019-03-16T19:43:01.354Z,3.70
2019-03-16T19:45:32.188Z,5.77
2019-03-16T19:48:05.154Z,6.33
2019-03-16T19:50:36.570Z,5.27
2019-03-16T19:53:09.316Z,5.57
2019-03-16T19:55:40.583Z,6.17
2019-03-16T19:58:13.835Z,8.27
2019-03-16T20:00:45.528Z,5.70
2019-03-16T20:03:17.699Z,6.00
2019-03-16T20:05:49.667Z,5.73
2019-03-16T20:08:22.813Z,4.80
2019-03-16T20:11:05.992Z,5.03
2019-03-16T20:13:29.367Z,6.13
2019-03-16T20:16:01.286Z,5.10
2019-03-16T20:18:33.756Z,5.47
2019-03-16T20:21:05.100Z,5.80
2019-03-16T20:23:37.255Z,5.47
2019-03-16T20:26:08.590Z,5.90
2019-03-16T20:28:39.975Z,5.17
2019-03-16T20:31:11.025Z,5.93
2019-03-16T20:33:42.735Z,8.20
2019-03-16T20:36:13.889Z,5.37
2019-03-16T20:38:45.190Z,5.57
2019-03-16T20:41:17.294Z,6.10
2019-03-16T20:43:50.587Z,6.67
2019-03-16T20:46:22.506Z,6.03
2019-03-16T20:48:55.869Z,7.20
2019-03-16T20:51:29.583Z,6.20
2019-03-16T20:54:02.439Z,7.17
2019-03-16T20:56:35.570Z,5.60
2019-03-16T20:59:07.670Z,5.30
2019-03-16T21:01:39.391Z,6.90
2019-03-16T21:04:13.340Z,6.27
2019-03-16T21:06:45.112Z,7.53
2019-03-16T21:09:18.219Z,8.50
2019-03-16T21:11:53.159Z,7.47
2019-03-16T21:14:28.045Z,8.00
2019-03-16T21:16:59.619Z,8.07
2019-03-16T21:19:31.096Z,6.40
2019-03-16T21:22:05.529Z,8.97
2019-03-16T21:24:37.489Z,8.00
2019-03-16T21:27:09.061Z,7.40
2019-03-16T21:29:42.734Z,9.77
2019-03-16T21:32:14.369Z,8.30
2019-03-16T21:34:48.394Z,6.90
2019-03-16T21:37:20.137Z,6.97
2019-03-16T21:39:52.540Z,8.37
2019-03-16T21:42:24.212Z,8.50
2019-03-16T21:44:55.750Z,7.30
2019-03-16T21:47:27.625Z,9.83
2019-03-16T21:50:02.308Z,9.87
2019-03-16T21:52:34.311Z,11.43
2019-03-16T21:55:08.005Z,13.43
2019-03-16T21:57:41.004Z,12.77
2019-03-16T22:00:13.680Z,11.27
2019-03-16T22:02:46.077Z,10.90
2019-03-16T22:05:18.248Z,12.07
2019-03-16T22:07:49.749Z,12.20
2019-03-16T22:10:20.960Z,13.10
2019-03-16T22:12:52.593Z,13.37
2019-03-16T22:15:24.034Z,12.47
2019-03-16T22:17:57.384Z,11.80
2019-03-16T22:20:28.938Z,14.90
2019-03-16T22:23:01.848Z,14.13
2019-03-16T22:25:33.718Z,14.63
2019-03-16T22:28:06.555Z,13.30
2019-03-16T22:30:38.174Z,13.23
2019-03-16T22:33:10.112Z,14.20
2019-03-16T22:35:41.585Z,15.77
2019-03-16T22:38:12.960Z,14.30
2019-03-16T22:40:45.357Z,13.67
2019-03-16T22:43:17.530Z,13.97
2019-03-16T22:45:48.571Z,15.07
2019-03-16T22:48:20.792Z,14.13
2019-03-16T22:50:52.665Z,13.37
2019-03-16T22:53:23.859Z,13.97
2019-03-16T22:55:55.319Z,13.27
2019-03-16T22:58:26.459Z,16.33
2019-03-16T23:00:57.586Z,14.67
2019-03-16T23:03:28.577Z,15.20
2019-03-16T23:05:59.869Z,14.07
2019-03-16T23:08:31.326Z,15.40
2019-03-16T23:11:02.393Z,14.23
2019-03-16T23:13:33.620Z,13.83
2019-03-16T23:16:04.759Z,13.33
2019-03-16T23:18:35.586Z,14.83
2019-03-16T23:21:06.350Z,12.47
2019-03-16T23:23:37.277Z,13.50
2019-03-16T23:26:08.621Z,13.77
2019-03-16T23:28:39.554Z,13.47
2019-03-16T23:31:12.389Z,14.37
2019-03-16T23:33:43.069Z,13.77
2019-03-16T23:36:13.622Z,14.50
2019-03-16T23:38:44.441Z,12.80
2019-03-16T23:41:15.675Z,13.17
2019-03-16T23:43:46.407Z,13.43
2019-03-16T23:46:17.098Z,12.97
2019-03-16T23:48:48.086Z,14.03
2019-03-16T23:51:18.774Z,14.73
2019-03-16T23:53:49.591Z,15.03
2019-03-16T23:56:20.390Z,14.73
2019-03-16T23:58:50.887Z,12.80
